sensor_id;sensor_type;location;lat;lon;timestamp;P1;durP1;ratioP1;P2;durP2;ratioP2
49942;SDS011;36011;53.362;58.948;2022-09-21T00:02:25;11.27;;;5.68;;
49942;SDS011;36011;53.362;58.948;2022-09-21T00:05:29;6.97;;;3.03;;
49942;SDS011;36011;53.362;58.948;2022-09-21T00:08:31;5.30;;;2.20;;
49942;SDS011;36011;53.362;58.948;2022-09-21T00:11:38;5.00;;;1.85;;
49942;SDS011;36011;53.362;58.948;2022-09-21T00:14:42;3.80;;;1.40;;
49942;SDS011;36011;53.362;58.948;2022-09-21T00:17:50;3.45;;;1.88;;
49942;SDS011;36011;53.362;58.948;2022-09-21T00:20:53;5.00;;;2.40;;
49942;SDS011;36011;53.362;58.948;2022-09-21T00:23:54;4.15;;;2.47;;
49942;SDS011;36011;53.362;58.948;2022-09-21T00:26:56;3.40;;;2.08;;
49942;SDS011;36011;53.362;58.948;2022-09-21T00:30:00;3.78;;;2.13;;
49942;SDS011;36011;53.362;58.948;2022-09-21T00:33:04;3.13;;;2.03;;
49942;SDS011;36011;53.362;58.948;2022-09-21T00:36:07;3.30;;;2.53;;
49942;SDS011;36011;53.362;58.948;2022-09-21T00:39:11;6.35;;;2.22;;
49942;SDS011;36011;53.362;58.948;2022-09-21T00:42:14;3.08;;;1.83;;
49942;SDS011;36011;53.362;58.948;2022-09-21T00:45:21;5.80;;;2.28;;
49942;SDS011;36011;53.362;58.948;2022-09-21T00:48:27;3.20;;;2.30;;
49942;SDS011;36011;53.362;58.948;2022-09-21T00:51:35;5.40;;;2.65;;
49942;SDS011;36011;53.362;58.948;2022-09-21T00:54:40;3.97;;;2.13;;
49942;SDS011;36011;53.362;58.948;2022-09-21T00:57:50;5.30;;;2.53;;
49942;SDS011;36011;53.362;58.948;2022-09-21T01:00:59;5.88;;;2.25;;
49942;SDS011;36011;53.362;58.948;2022-09-21T01:04:06;5.05;;;2.40;;
49942;SDS011;36011;53.362;58.948;2022-09-21T01:07:12;7.75;;;2.83;;
49942;SDS011;36011;53.362;58.948;2022-09-21T01:10:18;7.22;;;2.50;;
49942;SDS011;36011;53.362;58.948;2022-09-21T01:29:56;5.50;;;2.45;;
49942;SDS011;36011;53.362;58.948;2022-09-21T01:33:04;4.00;;;2.22;;
49942;SDS011;36011;53.362;58.948;2022-09-21T01:36:13;3.97;;;2.33;;
49942;SDS011;36011;53.362;58.948;2022-09-21T01:39:19;5.00;;;2.15;;
49942;SDS011;36011;53.362;58.948;2022-09-21T01:42:25;4.40;;;2.20;;
49942;SDS011;36011;53.362;58.948;2022-09-21T01:45:33;5.78;;;3.88;;
49942;SDS011;36011;53.362;58.948;2022-09-21T01:48:43;8.85;;;2.55;;
49942;SDS011;36011;53.362;58.948;2022-09-21T01:51:49;4.82;;;2.70;;
49942;SDS011;36011;53.362;58.948;2022-09-21T01:54:58;4.55;;;2.63;;
49942;SDS011;36011;53.362;58.948;2022-09-21T02:01:13;7.45;;;3.13;;
49942;SDS011;36011;53.362;58.948;2022-09-21T02:04:18;4.75;;;2.55;;
49942;SDS011;36011;53.362;58.948;2022-09-21T02:07:22;6.50;;;2.70;;
49942;SDS011;36011;53.362;58.948;2022-09-21T02:10:31;10.38;;;3.40;;
49942;SDS011;36011;53.362;58.948;2022-09-21T02:13:37;12.07;;;3.33;;
49942;SDS011;36011;53.362;58.948;2022-09-21T02:23:26;9.25;;;3.10;;
49942;SDS011;36011;53.362;58.948;2022-09-21T02:33:23;5.90;;;2.78;;
49942;SDS011;36011;53.362;58.948;2022-09-21T02:36:38;10.63;;;3.60;;
49942;SDS011;36011;53.362;58.948;2022-09-21T02:40:24;7.78;;;3.03;;
49942;SDS011;36011;53.362;58.948;2022-09-21T02:43:46;7.50;;;3.30;;
49942;SDS011;36011;53.362;58.948;2022-09-21T02:46:53;8.75;;;3.38;;
49942;SDS011;36011;53.362;58.948;2022-09-21T02:50:05;6.40;;;2.67;;
49942;SDS011;36011;53.362;58.948;2022-09-21T02:53:14;9.35;;;3.33;;
49942;SDS011;36011;53.362;58.948;2022-09-21T02:56:21;7.13;;;3.33;;
49942;SDS011;36011;53.362;58.948;2022-09-21T02:59:28;11.27;;;3.85;;
49942;SDS011;36011;53.362;58.948;2022-09-21T03:02:37;11.23;;;4.03;;
49942;SDS011;36011;53.362;58.948;2022-09-21T03:05:39;12.60;;;5.35;;
49942;SDS011;36011;53.362;58.948;2022-09-21T03:08:44;9.15;;;3.67;;
49942;SDS011;36011;53.362;58.948;2022-09-21T03:11:45;13.68;;;4.43;;
49942;SDS011;36011;53.362;58.948;2022-09-21T03:14:51;11.25;;;4.93;;
49942;SDS011;36011;53.362;58.948;2022-09-21T03:17:53;9.90;;;4.20;;
49942;SDS011;36011;53.362;58.948;2022-09-21T03:20:57;11.23;;;5.22;;
49942;SDS011;36011;53.362;58.948;2022-09-21T03:23:58;8.35;;;4.40;;
49942;SDS011;36011;53.362;58.948;2022-09-21T03:27:03;11.05;;;4.85;;
49942;SDS011;36011;53.362;58.948;2022-09-21T03:30:09;9.23;;;4.57;;
49942;SDS011;36011;53.362;58.948;2022-09-21T03:33:10;13.40;;;5.22;;
49942;SDS011;36011;53.362;58.948;2022-09-21T03:36:15;12.55;;;5.03;;
49942;SDS011;36011;53.362;58.948;2022-09-21T03:39:16;10.50;;;5.22;;
49942;SDS011;36011;53.362;58.948;2022-09-21T03:45:42;16.65;;;5.80;;
49942;SDS011;36011;53.362;58.948;2022-09-21T03:48:48;13.57;;;5.85;;
49942;SDS011;36011;53.362;58.948;2022-09-21T03:51:55;15.02;;;5.70;;
49942;SDS011;36011;53.362;58.948;2022-09-21T03:54:56;13.32;;;5.85;;
49942;SDS011;36011;53.362;58.948;2022-09-21T04:01:02;11.68;;;5.35;;
49942;SDS011;36011;53.362;58.948;2022-09-21T04:04:06;17.33;;;6.38;;
49942;SDS011;36011;53.362;58.948;2022-09-21T04:07:10;20.08;;;7.63;;
49942;SDS011;36011;53.362;58.948;2022-09-21T04:10:16;13.77;;;6.07;;
49942;SDS011;36011;53.362;58.948;2022-09-21T04:13:19;16.65;;;7.53;;
49942;SDS011;36011;53.362;58.948;2022-09-21T04:16:22;15.38;;;6.93;;
49942;SDS011;36011;53.362;58.948;2022-09-21T04:19:29;14.93;;;5.80;;
49942;SDS011;36011;53.362;58.948;2022-09-21T04:22:31;11.00;;;4.65;;
49942;SDS011;36011;53.362;58.948;2022-09-21T04:25:39;13.57;;;4.47;;
49942;SDS011;36011;53.362;58.948;2022-09-21T04:28:41;11.05;;;6.75;;
49942;SDS011;36011;53.362;58.948;2022-09-21T04:31:42;17.52;;;7.78;;
49942;SDS011;36011;53.362;58.948;2022-09-21T04:37:48;12.63;;;6.28;;
49942;SDS011;36011;53.362;58.948;2022-09-21T04:40:57;9.60;;;4.57;;
49942;SDS011;36011;53.362;58.948;2022-09-21T04:43:59;8.57;;;3.55;;
49942;SDS011;36011;53.362;58.948;2022-09-21T04:47:01;9.73;;;4.30;;
49942;SDS011;36011;53.362;58.948;2022-09-21T04:50:08;10.60;;;4.53;;
49942;SDS011;36011;53.362;58.948;2022-09-21T04:53:12;10.57;;;4.15;;
49942;SDS011;36011;53.362;58.948;2022-09-21T04:56:15;9.07;;;3.15;;
49942;SDS011;36011;53.362;58.948;2022-09-21T04:59:17;14.23;;;3.35;;
49942;SDS011;36011;53.362;58.948;2022-09-21T05:02:18;10.68;;;3.65;;
49942;SDS011;36011;53.362;58.948;2022-09-21T05:05:20;12.23;;;3.20;;
49942;SDS011;36011;53.362;58.948;2022-09-21T05:08:24;9.73;;;3.42;;
49942;SDS011;36011;53.362;58.948;2022-09-21T05:11:45;7.50;;;3.60;;
49942;SDS011;36011;53.362;58.948;2022-09-21T05:14:50;6.03;;;3.30;;
49942;SDS011;36011;53.362;58.948;2022-09-21T05:17:56;7.97;;;3.47;;
49942;SDS011;36011;53.362;58.948;2022-09-21T05:21:01;10.13;;;3.38;;
49942;SDS011;36011;53.362;58.948;2022-09-21T05:27:05;9.57;;;4.50;;
49942;SDS011;36011;53.362;58.948;2022-09-21T05:30:09;9.95;;;4.35;;
49942;SDS011;36011;53.362;58.948;2022-09-21T05:33:12;9.82;;;3.63;;
49942;SDS011;36011;53.362;58.948;2022-09-21T05:39:42;12.93;;;3.92;;
49942;SDS011;36011;53.362;58.948;2022-09-21T05:42:46;5.80;;;3.13;;
49942;SDS011;36011;53.362;58.948;2022-09-21T05:45:53;10.75;;;3.33;;
49942;SDS011;36011;53.362;58.948;2022-09-21T05:49:06;5.97;;;3.35;;
49942;SDS011;36011;53.362;58.948;2022-09-21T05:55:34;13.60;;;3.22;;
49942;SDS011;36011;53.362;58.948;2022-09-21T06:02:56;7.70;;;2.95;;
49942;SDS011;36011;53.362;58.948;2022-09-21T06:06:33;6.07;;;2.88;;
49942;SDS011;36011;53.362;58.948;2022-09-21T06:09:34;6.15;;;2.42;;
49942;SDS011;36011;53.362;58.948;2022-09-21T06:12:38;7.18;;;2.53;;
49942;SDS011;36011;53.362;58.948;2022-09-21T06:15:43;9.25;;;2.88;;
49942;SDS011;36011;53.362;58.948;2022-09-21T06:18:47;11.73;;;3.90;;
49942;SDS011;36011;53.362;58.948;2022-09-21T06:21:54;9.18;;;3.17;;
49942;SDS011;36011;53.362;58.948;2022-09-21T06:24:55;6.88;;;2.42;;
49942;SDS011;36011;53.362;58.948;2022-09-21T06:28:10;5.90;;;2.40;;
49942;SDS011;36011;53.362;58.948;2022-09-21T06:31:16;2.22;;;0.77;;
49942;SDS011;36011;53.362;58.948;2022-09-21T06:34:20;3.38;;;0.70;;
49942;SDS011;36011;53.362;58.948;2022-09-21T06:37:27;1.83;;;0.50;;
49942;SDS011;36011;53.362;58.948;2022-09-21T06:40:30;1.33;;;0.40;;
49942;SDS011;36011;53.362;58.948;2022-09-21T06:43:40;1.23;;;0.30;;
49942;SDS011;36011;53.362;58.948;2022-09-21T06:46:46;1.40;;;0.40;;
49942;SDS011;36011;53.362;58.948;2022-09-21T06:49:47;1.77;;;0.60;;
49942;SDS011;36011;53.362;58.948;2022-09-21T06:52:49;0.57;;;0.32;;
49942;SDS011;36011;53.362;58.948;2022-09-21T06:55:53;1.48;;;0.50;;
49942;SDS011;36011;53.362;58.948;2022-09-21T06:59:05;2.35;;;0.50;;
49942;SDS011;36011;53.362;58.948;2022-09-21T07:02:09;1.90;;;0.60;;
49942;SDS011;36011;53.362;58.948;2022-09-21T07:05:13;1.48;;;0.50;;
49942;SDS011;36011;53.362;58.948;2022-09-21T07:08:18;1.50;;;0.50;;
49942;SDS011;36011;53.362;58.948;2022-09-21T07:11:31;1.85;;;0.25;;
49942;SDS011;36011;53.362;58.948;2022-09-21T07:14:37;0.30;;;0.28;;
49942;SDS011;36011;53.362;58.948;2022-09-21T07:17:40;5.78;;;0.57;;
49942;SDS011;36011;53.362;58.948;2022-09-21T07:20:45;0.70;;;0.32;;
49942;SDS011;36011;53.362;58.948;2022-09-21T07:23:51;1.42;;;0.40;;
49942;SDS011;36011;53.362;58.948;2022-09-21T07:26:59;0.80;;;0.40;;
49942;SDS011;36011;53.362;58.948;2022-09-21T07:30:03;1.00;;;0.60;;
49942;SDS011;36011;53.362;58.948;2022-09-21T07:33:06;2.42;;;1.92;;
49942;SDS011;36011;53.362;58.948;2022-09-21T07:36:08;3.63;;;2.65;;
49942;SDS011;36011;53.362;58.948;2022-09-21T07:39:13;1.38;;;0.88;;
49942;SDS011;36011;53.362;58.948;2022-09-21T07:42:20;1.02;;;0.80;;
49942;SDS011;36011;53.362;58.948;2022-09-21T07:45:22;1.88;;;0.80;;
49942;SDS011;36011;53.362;58.948;2022-09-21T07:48:29;1.00;;;0.50;;
49942;SDS011;36011;53.362;58.948;2022-09-21T07:51:36;0.65;;;0.40;;
49942;SDS011;36011;53.362;58.948;2022-09-21T07:54:38;0.20;;;0.20;;
49942;SDS011;36011;53.362;58.948;2022-09-21T07:57:40;0.95;;;0.70;;
49942;SDS011;36011;53.362;58.948;2022-09-21T08:01:07;1.30;;;0.82;;
49942;SDS011;36011;53.362;58.948;2022-09-21T08:04:09;2.78;;;1.20;;
49942;SDS011;36011;53.362;58.948;2022-09-21T08:07:14;1.52;;;0.70;;
49942;SDS011;36011;53.362;58.948;2022-09-21T08:10:20;0.88;;;0.47;;
49942;SDS011;36011;53.362;58.948;2022-09-21T08:13:31;1.92;;;1.25;;
49942;SDS011;36011;53.362;58.948;2022-09-21T08:16:37;2.28;;;1.08;;
49942;SDS011;36011;53.362;58.948;2022-09-21T08:19:43;0.82;;;0.73;;
49942;SDS011;36011;53.362;58.948;2022-09-21T08:22:45;0.82;;;0.40;;
49942;SDS011;36011;53.362;58.948;2022-09-21T08:25:49;1.45;;;0.20;;
49942;SDS011;36011;53.362;58.948;2022-09-21T08:28:55;0.75;;;0.28;;
49942;SDS011;36011;53.362;58.948;2022-09-21T08:32:02;1.13;;;0.40;;
49942;SDS011;36011;53.362;58.948;2022-09-21T08:35:04;0.63;;;0.30;;
49942;SDS011;36011;53.362;58.948;2022-09-21T08:38:07;1.17;;;0.35;;
49942;SDS011;36011;53.362;58.948;2022-09-21T08:47:55;3.97;;;1.50;;
49942;SDS011;36011;53.362;58.948;2022-09-21T08:51:03;3.97;;;1.42;;
49942;SDS011;36011;53.362;58.948;2022-09-21T08:54:18;0.85;;;0.50;;
49942;SDS011;36011;53.362;58.948;2022-09-21T08:57:35;1.60;;;0.40;;
49942;SDS011;36011;53.362;58.948;2022-09-21T09:00:40;0.95;;;0.30;;
49942;SDS011;36011;53.362;58.948;2022-09-21T09:03:51;0.77;;;0.30;;
49942;SDS011;36011;53.362;58.948;2022-09-21T09:17:54;1.77;;;0.60;;
49942;SDS011;36011;53.362;58.948;2022-09-21T09:24:42;0.93;;;0.30;;
49942;SDS011;36011;53.362;58.948;2022-09-21T09:27:52;0.68;;;0.22;;
49942;SDS011;36011;53.362;58.948;2022-09-21T09:31:00;1.00;;;0.40;;
49942;SDS011;36011;53.362;58.948;2022-09-21T09:37:27;1.20;;;0.38;;
49942;SDS011;36011;53.362;58.948;2022-09-21T09:41:20;0.32;;;0.20;;
49942;SDS011;36011;53.362;58.948;2022-09-21T09:51:26;1.15;;;0.40;;
49942;SDS011;36011;53.362;58.948;2022-09-21T09:54:34;0.45;;;0.28;;
49942;SDS011;36011;53.362;58.948;2022-09-21T09:57:40;0.68;;;0.32;;
49942;SDS011;36011;53.362;58.948;2022-09-21T10:00:50;0.95;;;0.52;;
49942;SDS011;36011;53.362;58.948;2022-09-21T10:04:08;1.00;;;0.50;;
49942;SDS011;36011;53.362;58.948;2022-09-21T10:07:17;0.70;;;0.40;;
49942;SDS011;36011;53.362;58.948;2022-09-21T10:10:34;1.23;;;0.40;;
49942;SDS011;36011;53.362;58.948;2022-09-21T10:13:38;0.60;;;0.35;;
49942;SDS011;36011;53.362;58.948;2022-09-21T10:16:49;1.00;;;0.50;;
49942;SDS011;36011;53.362;58.948;2022-09-21T10:19:59;1.65;;;0.60;;
49942;SDS011;36011;53.362;58.948;2022-09-21T10:23:02;1.10;;;0.52;;
49942;SDS011;36011;53.362;58.948;2022-09-21T10:26:10;2.15;;;0.70;;
49942;SDS011;36011;53.362;58.948;2022-09-21T10:32:27;1.10;;;0.55;;
49942;SDS011;36011;53.362;58.948;2022-09-21T10:35:29;1.55;;;0.70;;
49942;SDS011;36011;53.362;58.948;2022-09-21T10:38:49;2.63;;;0.50;;
49942;SDS011;36011;53.362;58.948;2022-09-21T10:41:56;2.60;;;1.83;;
49942;SDS011;36011;53.362;58.948;2022-09-21T10:45:16;3.28;;;2.03;;
49942;SDS011;36011;53.362;58.948;2022-09-21T10:51:26;5.13;;;2.90;;
49942;SDS011;36011;53.362;58.948;2022-09-21T10:54:31;3.88;;;2.20;;
49942;SDS011;36011;53.362;58.948;2022-09-21T10:57:38;1.05;;;0.70;;
49942;SDS011;36011;53.362;58.948;2022-09-21T11:00:43;3.15;;;1.30;;
49942;SDS011;36011;53.362;58.948;2022-09-21T11:03:59;2.03;;;1.50;;
49942;SDS011;36011;53.362;58.948;2022-09-21T11:07:12;1.30;;;0.73;;
49942;SDS011;36011;53.362;58.948;2022-09-21T11:13:30;2.08;;;0.80;;
49942;SDS011;36011;53.362;58.948;2022-09-21T11:16:42;1.13;;;0.85;;
49942;SDS011;36011;53.362;58.948;2022-09-21T11:30:11;1.38;;;0.70;;
49942;SDS011;36011;53.362;58.948;2022-09-21T11:36:55;2.17;;;0.95;;
49942;SDS011;36011;53.362;58.948;2022-09-21T11:40:13;2.42;;;1.23;;
49942;SDS011;36011;53.362;58.948;2022-09-21T11:54:34;2.80;;;1.52;;
49942;SDS011;36011;53.362;58.948;2022-09-21T12:11:40;1.00;;;0.70;;
49942;SDS011;36011;53.362;58.948;2022-09-21T12:17:57;6.10;;;4.20;;
49942;SDS011;36011;53.362;58.948;2022-09-21T12:21:25;4.53;;;1.70;;
49942;SDS011;36011;53.362;58.948;2022-09-21T12:24:35;2.78;;;1.30;;
49942;SDS011;36011;53.362;58.948;2022-09-21T12:31:03;1.55;;;0.68;;
49942;SDS011;36011;53.362;58.948;2022-09-21T12:34:20;2.60;;;1.02;;
49942;SDS011;36011;53.362;58.948;2022-09-21T12:37:32;7.78;;;4.55;;
49942;SDS011;36011;53.362;58.948;2022-09-21T12:41:03;1.95;;;1.15;;
49942;SDS011;36011;53.362;58.948;2022-09-21T12:51:28;1.85;;;0.63;;
49942;SDS011;36011;53.362;58.948;2022-09-21T13:11:20;3.55;;;1.20;;
49942;SDS011;36011;53.362;58.948;2022-09-21T13:14:28;3.13;;;0.88;;
49942;SDS011;36011;53.362;58.948;2022-09-21T13:17:37;1.85;;;1.25;;
49942;SDS011;36011;53.362;58.948;2022-09-21T13:20:44;2.92;;;1.15;;
49942;SDS011;36011;53.362;58.948;2022-09-21T13:23:55;4.70;;;1.23;;
49942;SDS011;36011;53.362;58.948;2022-09-21T13:27:04;1.25;;;1.05;;
49942;SDS011;36011;53.362;58.948;2022-09-21T13:33:38;2.03;;;1.08;;
49942;SDS011;36011;53.362;58.948;2022-09-21T13:36:41;5.82;;;1.55;;
49942;SDS011;36011;53.362;58.948;2022-09-21T13:43:16;3.25;;;1.20;;
49942;SDS011;36011;53.362;58.948;2022-09-21T13:49:46;10.80;;;3.53;;
49942;SDS011;36011;53.362;58.948;2022-09-21T13:52:58;26.60;;;11.50;;
49942;SDS011;36011;53.362;58.948;2022-09-21T13:56:08;47.45;;;20.33;;
49942;SDS011;36011;53.362;58.948;2022-09-21T13:59:20;17.48;;;6.75;;
49942;SDS011;36011;53.362;58.948;2022-09-21T14:02:30;39.28;;;17.10;;
49942;SDS011;36011;53.362;58.948;2022-09-21T14:05:42;20.13;;;10.15;;
49942;SDS011;36011;53.362;58.948;2022-09-21T14:09:07;14.95;;;5.03;;
49942;SDS011;36011;53.362;58.948;2022-09-21T14:12:19;6.60;;;2.90;;
49942;SDS011;36011;53.362;58.948;2022-09-21T14:18:36;9.05;;;4.82;;
49942;SDS011;36011;53.362;58.948;2022-09-21T14:21:38;34.63;;;17.13;;
49942;SDS011;36011;53.362;58.948;2022-09-21T14:24:43;9.65;;;5.03;;
49942;SDS011;36011;53.362;58.948;2022-09-21T14:27:49;5.72;;;3.05;;
49942;SDS011;36011;53.362;58.948;2022-09-21T14:30:55;6.57;;;3.10;;
49942;SDS011;36011;53.362;58.948;2022-09-21T14:34:04;9.07;;;3.85;;
49942;SDS011;36011;53.362;58.948;2022-09-21T14:37:34;4.88;;;2.90;;
49942;SDS011;36011;53.362;58.948;2022-09-21T14:40:37;7.82;;;3.45;;
49942;SDS011;36011;53.362;58.948;2022-09-21T14:43:51;13.85;;;5.68;;
49942;SDS011;36011;53.362;58.948;2022-09-21T14:50:28;14.23;;;7.55;;
49942;SDS011;36011;53.362;58.948;2022-09-21T15:00:37;10.27;;;4.33;;
49942;SDS011;36011;53.362;58.948;2022-09-21T15:03:43;13.35;;;4.68;;
49942;SDS011;36011;53.362;58.948;2022-09-21T15:17:38;29.95;;;15.50;;
49942;SDS011;36011;53.362;58.948;2022-09-21T15:20:55;49.53;;;27.88;;
49942;SDS011;36011;53.362;58.948;2022-09-21T15:24:09;62.70;;;32.47;;
49942;SDS011;36011;53.362;58.948;2022-09-21T15:27:29;73.18;;;41.97;;
49942;SDS011;36011;53.362;58.948;2022-09-21T15:30:39;89.03;;;45.53;;
49942;SDS011;36011;53.362;58.948;2022-09-21T15:33:46;89.63;;;46.35;;
49942;SDS011;36011;53.362;58.948;2022-09-21T15:36:52;100.47;;;50.28;;
49942;SDS011;36011;53.362;58.948;2022-09-21T15:40:13;92.35;;;50.15;;
49942;SDS011;36011;53.362;58.948;2022-09-21T15:43:20;92.80;;;50.00;;
49942;SDS011;36011;53.362;58.948;2022-09-21T15:46:26;94.60;;;50.63;;
49942;SDS011;36011;53.362;58.948;2022-09-21T15:52:34;88.63;;;49.58;;
49942;SDS011;36011;53.362;58.948;2022-09-21T15:55:45;124.22;;;66.78;;
49942;SDS011;36011;53.362;58.948;2022-09-21T15:58:50;144.35;;;77.93;;
49942;SDS011;36011;53.362;58.948;2022-09-21T16:02:09;139.80;;;74.95;;
49942;SDS011;36011;53.362;58.948;2022-09-21T16:05:15;136.82;;;74.57;;
49942;SDS011;36011;53.362;58.948;2022-09-21T16:11:44;139.35;;;71.05;;
49942;SDS011;36011;53.362;58.948;2022-09-21T16:14:48;126.72;;;65.95;;
49942;SDS011;36011;53.362;58.948;2022-09-21T16:18:02;122.20;;;63.38;;
49942;SDS011;36011;53.362;58.948;2022-09-21T16:21:07;119.57;;;61.08;;
49942;SDS011;36011;53.362;58.948;2022-09-21T16:27:19;98.78;;;51.20;;
49942;SDS011;36011;53.362;58.948;2022-09-21T16:30:43;84.30;;;44.67;;
49942;SDS011;36011;53.362;58.948;2022-09-21T16:36:57;65.43;;;33.90;;
49942;SDS011;36011;53.362;58.948;2022-09-21T16:40:03;61.50;;;33.55;;
49942;SDS011;36011;53.362;58.948;2022-09-21T16:43:05;58.63;;;30.23;;
49942;SDS011;36011;53.362;58.948;2022-09-21T16:46:12;53.35;;;27.50;;
49942;SDS011;36011;53.362;58.948;2022-09-21T16:49:16;49.72;;;25.17;;
49942;SDS011;36011;53.362;58.948;2022-09-21T16:52:22;49.75;;;24.23;;
49942;SDS011;36011;53.362;58.948;2022-09-21T16:55:31;38.88;;;21.52;;
49942;SDS011;36011;53.362;58.948;2022-09-21T16:58:34;37.47;;;20.42;;
49942;SDS011;36011;53.362;58.948;2022-09-21T17:01:40;32.25;;;16.73;;
49942;SDS011;36011;53.362;58.948;2022-09-21T17:07:55;29.42;;;15.10;;
49942;SDS011;36011;53.362;58.948;2022-09-21T17:11:02;28.85;;;15.60;;
49942;SDS011;36011;53.362;58.948;2022-09-21T17:14:04;30.35;;;15.88;;
49942;SDS011;36011;53.362;58.948;2022-09-21T17:17:10;27.40;;;14.85;;
49942;SDS011;36011;53.362;58.948;2022-09-21T17:20:41;33.47;;;18.63;;
49942;SDS011;36011;53.362;58.948;2022-09-21T17:23:45;23.60;;;12.20;;
49942;SDS011;36011;53.362;58.948;2022-09-21T17:26:54;20.80;;;11.85;;
49942;SDS011;36011;53.362;58.948;2022-09-21T17:29:57;25.90;;;13.20;;
49942;SDS011;36011;53.362;58.948;2022-09-21T17:33:04;22.80;;;12.13;;
49942;SDS011;36011;53.362;58.948;2022-09-21T17:36:12;18.15;;;9.93;;
49942;SDS011;36011;53.362;58.948;2022-09-21T17:39:14;15.35;;;8.43;;
49942;SDS011;36011;53.362;58.948;2022-09-21T17:42:20;15.77;;;9.23;;
49942;SDS011;36011;53.362;58.948;2022-09-21T17:45:31;18.48;;;11.60;;
49942;SDS011;36011;53.362;58.948;2022-09-21T17:48:40;16.77;;;10.20;;
49942;SDS011;36011;53.362;58.948;2022-09-21T17:51:45;15.85;;;10.13;;
49942;SDS011;36011;53.362;58.948;2022-09-21T17:55:05;14.88;;;9.35;;
49942;SDS011;36011;53.362;58.948;2022-09-21T17:58:20;18.05;;;10.70;;
49942;SDS011;36011;53.362;58.948;2022-09-21T18:04:40;16.13;;;9.43;;
49942;SDS011;36011;53.362;58.948;2022-09-21T18:07:42;22.10;;;11.30;;
49942;SDS011;36011;53.362;58.948;2022-09-21T18:14:10;12.48;;;7.47;;
49942;SDS011;36011;53.362;58.948;2022-09-21T18:21:14;12.00;;;7.35;;
49942;SDS011;36011;53.362;58.948;2022-09-21T18:24:26;17.00;;;7.95;;
49942;SDS011;36011;53.362;58.948;2022-09-21T18:30:35;16.27;;;9.00;;
49942;SDS011;36011;53.362;58.948;2022-09-21T18:43:56;18.23;;;8.02;;
49942;SDS011;36011;53.362;58.948;2022-09-21T18:50:33;21.27;;;10.18;;
49942;SDS011;36011;53.362;58.948;2022-09-21T18:53:49;18.52;;;10.13;;
49942;SDS011;36011;53.362;58.948;2022-09-21T18:56:57;20.80;;;10.43;;
49942;SDS011;36011;53.362;58.948;2022-09-21T19:00:05;20.40;;;10.02;;
49942;SDS011;36011;53.362;58.948;2022-09-21T19:03:10;15.82;;;8.75;;
49942;SDS011;36011;53.362;58.948;2022-09-21T19:09:39;18.08;;;9.88;;
49942;SDS011;36011;53.362;58.948;2022-09-21T19:22:51;17.20;;;9.73;;
49942;SDS011;36011;53.362;58.948;2022-09-21T19:26:21;20.88;;;11.88;;
49942;SDS011;36011;53.362;58.948;2022-09-21T19:29:47;21.15;;;11.88;;
49942;SDS011;36011;53.362;58.948;2022-09-21T19:33:01;21.48;;;11.93;;
49942;SDS011;36011;53.362;58.948;2022-09-21T19:36:20;25.60;;;12.82;;
49942;SDS011;36011;53.362;58.948;2022-09-21T19:39:24;28.17;;;14.27;;
49942;SDS011;36011;53.362;58.948;2022-09-21T19:42:33;28.35;;;14.75;;
49942;SDS011;36011;53.362;58.948;2022-09-21T19:45:43;30.67;;;14.90;;
49942;SDS011;36011;53.362;58.948;2022-09-21T19:52:22;24.30;;;15.18;;
49942;SDS011;36011;53.362;58.948;2022-09-21T19:55:32;51.05;;;24.48;;
49942;SDS011;36011;53.362;58.948;2022-09-21T19:58:54;95.90;;;50.85;;
49942;SDS011;36011;53.362;58.948;2022-09-21T20:02:21;104.15;;;50.72;;
49942;SDS011;36011;53.362;58.948;2022-09-21T20:11:58;118.22;;;54.90;;
49942;SDS011;36011;53.362;58.948;2022-09-21T20:15:26;115.35;;;49.78;;
49942;SDS011;36011;53.362;58.948;2022-09-21T20:18:50;76.60;;;37.22;;
49942;SDS011;36011;53.362;58.948;2022-09-21T20:22:16;55.75;;;28.02;;
49942;SDS011;36011;53.362;58.948;2022-09-21T20:25:59;54.17;;;25.13;;
49942;SDS011;36011;53.362;58.948;2022-09-21T20:29:03;45.65;;;23.55;;
49942;SDS011;36011;53.362;58.948;2022-09-21T20:32:06;53.13;;;24.77;;
49942;SDS011;36011;53.362;58.948;2022-09-21T20:35:13;34.95;;;19.08;;
49942;SDS011;36011;53.362;58.948;2022-09-21T20:38:20;36.42;;;17.08;;
49942;SDS011;36011;53.362;58.948;2022-09-21T20:41:25;35.00;;;17.48;;
49942;SDS011;36011;53.362;58.948;2022-09-21T20:44:29;28.27;;;14.80;;
49942;SDS011;36011;53.362;58.948;2022-09-21T20:50:46;23.58;;;11.93;;
49942;SDS011;36011;53.362;58.948;2022-09-21T20:53:49;25.45;;;11.98;;
49942;SDS011;36011;53.362;58.948;2022-09-21T20:56:54;23.55;;;12.48;;
49942;SDS011;36011;53.362;58.948;2022-09-21T20:59:58;23.65;;;11.65;;
49942;SDS011;36011;53.362;58.948;2022-09-21T21:03:03;18.48;;;10.45;;
49942;SDS011;36011;53.362;58.948;2022-09-21T21:06:09;18.05;;;10.45;;
49942;SDS011;36011;53.362;58.948;2022-09-21T21:09:14;17.38;;;9.18;;
49942;SDS011;36011;53.362;58.948;2022-09-21T21:12:18;17.35;;;8.77;;
49942;SDS011;36011;53.362;58.948;2022-09-21T21:15:24;13.13;;;8.07;;
49942;SDS011;36011;53.362;58.948;2022-09-21T21:18:26;12.88;;;8.18;;
49942;SDS011;36011;53.362;58.948;2022-09-21T21:21:27;15.55;;;8.32;;
49942;SDS011;36011;53.362;58.948;2022-09-21T21:24:29;14.15;;;9.07;;
49942;SDS011;36011;53.362;58.948;2022-09-21T21:27:42;18.25;;;9.25;;
49942;SDS011;36011;53.362;58.948;2022-09-21T21:30:43;14.20;;;8.35;;
49942;SDS011;36011;53.362;58.948;2022-09-21T21:33:51;14.65;;;7.95;;
49942;SDS011;36011;53.362;58.948;2022-09-21T21:36:53;13.77;;;8.63;;
49942;SDS011;36011;53.362;58.948;2022-09-21T21:39:58;14.02;;;7.75;;
49942;SDS011;36011;53.362;58.948;2022-09-21T21:43:04;12.02;;;6.57;;
49942;SDS011;36011;53.362;58.948;2022-09-21T21:46:06;16.52;;;10.65;;
49942;SDS011;36011;53.362;58.948;2022-09-21T21:49:13;13.80;;;7.35;;
49942;SDS011;36011;53.362;58.948;2022-09-21T21:52:14;11.70;;;6.45;;
49942;SDS011;36011;53.362;58.948;2022-09-21T21:55:18;10.27;;;6.60;;
49942;SDS011;36011;53.362;58.948;2022-09-21T21:58:22;11.43;;;6.57;;
49942;SDS011;36011;53.362;58.948;2022-09-21T22:01:25;11.40;;;6.55;;
49942;SDS011;36011;53.362;58.948;2022-09-21T22:04:31;12.57;;;6.65;;
49942;SDS011;36011;53.362;58.948;2022-09-21T22:07:35;10.43;;;5.95;;
49942;SDS011;36011;53.362;58.948;2022-09-21T22:10:46;13.57;;;6.75;;
49942;SDS011;36011;53.362;58.948;2022-09-21T22:13:50;13.65;;;7.47;;
49942;SDS011;36011;53.362;58.948;2022-09-21T22:16:55;14.60;;;7.88;;
49942;SDS011;36011;53.362;58.948;2022-09-21T22:19:58;15.07;;;7.68;;
49942;SDS011;36011;53.362;58.948;2022-09-21T22:23:03;15.93;;;8.15;;
49942;SDS011;36011;53.362;58.948;2022-09-21T22:29:13;13.52;;;7.13;;
49942;SDS011;36011;53.362;58.948;2022-09-21T22:32:19;14.57;;;8.13;;
49942;SDS011;36011;53.362;58.948;2022-09-21T22:35:26;15.80;;;7.10;;
49942;SDS011;36011;53.362;58.948;2022-09-21T22:38:28;18.42;;;8.70;;
49942;SDS011;36011;53.362;58.948;2022-09-21T22:41:33;15.40;;;7.55;;
49942;SDS011;36011;53.362;58.948;2022-09-21T22:44:36;11.38;;;6.50;;
49942;SDS011;36011;53.362;58.948;2022-09-21T22:47:40;11.93;;;6.57;;
49942;SDS011;36011;53.362;58.948;2022-09-21T22:50:43;12.57;;;6.10;;
49942;SDS011;36011;53.362;58.948;2022-09-21T22:53:45;7.82;;;5.13;;
49942;SDS011;36011;53.362;58.948;2022-09-21T22:56:48;9.20;;;4.93;;